createdAt,value
2019-03-31T14:19:54.205Z,48.35
2019-03-31T14:22:24.030Z,48.21
2019-03-31T14:24:53.787Z,47.25
2019-03-31T14:27:23.651Z,46.72
2019-03-31T14:29:53.470Z,46.50
2019-03-31T14:32:23.374Z,47.27
2019-03-31T14:34:53.259Z,47.68
2019-03-31T14:37:23.095Z,48.51
2019-03-31T14:39:53.009Z,50.10
2019-03-31T14:42:22.905Z,50.88
2019-03-31T14:44:52.720Z,50.96
2019-03-31T14:47:22.675Z,50.39
2019-03-31T14:49:52.668Z,50.25
2019-03-31T14:52:27.561Z,48.77
2019-03-31T14:54:55.861Z,49.41
2019-03-31T14:57:25.654Z,48.26
2019-03-31T14:59:55.577Z,46.95
2019-03-31T15:02:25.415Z,48.44
2019-03-31T15:04:55.244Z,50.02
2019-03-31T15:07:25.154Z,49.09
2019-03-31T15:09:55.047Z,50.42
2019-03-31T15:12:24.895Z,50.12
2019-03-31T15:14:54.778Z,50.15
2019-03-31T15:17:24.628Z,49.07
2019-03-31T15:19:54.438Z,48.71
2019-03-31T15:22:24.347Z,48.19
2019-03-31T15:24:54.211Z,47.84
2019-03-31T15:27:24.078Z,48.13
2019-03-31T15:29:53.936Z,47.35
2019-03-31T15:32:23.774Z,48.57
2019-03-31T15:34:53.641Z,48.58
2019-03-31T15:37:23.474Z,48.60
2019-03-31T15:39:53.339Z,48.36
2019-03-31T15:42:23.238Z,48.09
2019-03-31T15:44:53.030Z,47.98
2019-03-31T15:47:23.012Z,47.86
2019-03-31T15:49:52.870Z,47.53
2019-03-31T15:52:22.721Z,47.93
2019-03-31T15:54:52.600Z,47.67
2019-03-31T15:57:22.462Z,47.25
2019-03-31T15:59:50.932Z,47.99
2019-03-31T16:02:22.366Z,49.43
2019-03-31T16:04:52.214Z,49.31
2019-03-31T16:07:22.084Z,48.39
2019-03-31T16:09:53.870Z,49.12
2019-03-31T16:12:23.181Z,48.97
2019-03-31T16:14:52.458Z,47.88
2019-03-31T16:17:21.800Z,48.60
2019-03-31T16:19:51.120Z,48.14
2019-03-31T16:22:20.423Z,48.11
2019-03-31T16:24:51.909Z,48.84
2019-03-31T16:27:21.314Z,48.74
2019-03-31T16:29:50.634Z,48.58
2019-03-31T16:32:19.960Z,48.58
2019-03-31T16:34:49.283Z,48.01
2019-03-31T16:37:18.621Z,48.48
2019-03-31T16:39:47.906Z,48.40
2019-03-31T16:42:17.224Z,47.95
2019-03-31T16:44:57.651Z,48.62
2019-03-31T16:47:17.591Z,48.66
2019-03-31T16:49:46.910Z,48.86
2019-03-31T16:52:16.183Z,48.45
2019-03-31T16:54:45.496Z,48.36
2019-03-31T16:57:14.974Z,48.92
2019-03-31T16:59:44.517Z,48.76
2019-03-31T17:02:13.797Z,48.60
2019-03-31T17:04:43.161Z,48.23
2019-03-31T17:07:12.526Z,48.69
2019-03-31T17:09:51.489Z,48.15
2019-03-31T17:12:12.899Z,48.05
2019-03-31T17:14:42.222Z,47.90
2019-03-31T17:17:11.565Z,48.03
2019-03-31T17:19:40.898Z,48.24
2019-03-31T17:22:10.191Z,47.80
2019-03-31T17:24:39.620Z,48.38
2019-03-31T17:27:14.130Z,48.75
2019-03-31T17:29:50.400Z,48.47
2019-03-31T17:32:20.168Z,48.66
2019-03-31T17:34:50.684Z,48.97
2019-03-31T17:37:19.975Z,49.20
2019-03-31T17:39:49.370Z,49.50
2019-03-31T17:42:18.679Z,48.93
2019-03-31T17:44:48.075Z,49.58
2019-03-31T17:47:17.397Z,49.28
2019-03-31T17:49:46.833Z,49.83
2019-03-31T17:52:16.272Z,49.93
2019-03-31T17:54:45.671Z,49.96
2019-03-31T17:57:15.010Z,50.61
2019-03-31T17:59:44.326Z,50.91
2019-03-31T18:02:13.666Z,50.80
2019-03-31T18:04:42.999Z,51.18
2019-03-31T18:07:12.313Z,51.18
2019-03-31T18:09:41.752Z,51.35
2019-03-31T18:12:11.052Z,51.40
2019-03-31T18:14:40.344Z,52.14
2019-03-31T18:17:09.681Z,51.73
2019-03-31T18:19:40.111Z,51.63
2019-03-31T18:22:16.246Z,51.37
2019-03-31T18:24:40.651Z,51.27
2019-03-31T18:27:09.997Z,51.59
2019-03-31T18:29:39.283Z,51.60
2019-03-31T18:32:08.617Z,51.84
2019-03-31T18:34:37.973Z,52.39
2019-03-31T18:37:07.572Z,52.01
2019-03-31T18:39:36.971Z,52.05
2019-03-31T18:42:06.383Z,52.09
2019-03-31T18:44:40.399Z,52.28
2019-03-31T18:47:09.854Z,52.20
2019-03-31T18:49:39.227Z,52.07
2019-03-31T18:52:08.742Z,52.12
2019-03-31T18:54:46.359Z,51.77
2019-03-31T18:57:34.747Z,51.44
2019-03-31T19:00:22.135Z,51.36
2019-03-31T19:03:10.613Z,51.18
2019-03-31T19:05:58.020Z,50.74
2019-03-31T19:08:59.945Z,50.58
2019-03-31T19:11:54.544Z,51.05
2019-03-31T19:14:36.996Z,51.26
2019-03-31T19:17:29.212Z,50.75
2019-03-31T19:20:50.317Z,50.91
2019-03-31T19:23:46.855Z,51.17
2019-03-31T19:26:51.391Z,51.09
2019-03-31T19:29:44.577Z,51.12
2019-03-31T19:33:01.833Z,50.65
2019-03-31T19:39:24.148Z,50.90
2019-03-31T19:42:36.848Z,50.60
2019-03-31T19:45:22.794Z,50.61
2019-03-31T19:48:32.814Z,50.78
2019-03-31T19:52:08.773Z,50.91
2019-03-31T19:59:05.255Z,50.72
2019-03-31T20:01:45.560Z,50.94
2019-03-31T20:04:35.949Z,51.32
2019-03-31T20:08:00.410Z,51.79
2019-03-31T20:21:34.819Z,52.52
2019-03-31T20:24:36.720Z,52.68
2019-03-31T20:30:55.115Z,52.95
2019-03-31T20:34:10.518Z,52.54
2019-03-31T20:37:07.098Z,52.64
2019-03-31T20:40:32.119Z,52.52
2019-03-31T20:43:23.233Z,53.02
2019-03-31T20:45:59.283Z,52.62
2019-03-31T20:48:35.865Z,53.04
2019-03-31T20:51:07.209Z,53.28
2019-03-31T20:53:41.423Z,53.67
2019-03-31T20:56:15.445Z,53.76
2019-03-31T21:02:29.113Z,54.12
2019-03-31T21:04:58.648Z,54.03
2019-03-31T21:07:46.133Z,54.32
2019-03-31T21:14:20.226Z,54.95
2019-03-31T21:17:37.975Z,54.42
2019-03-31T21:24:21.549Z,54.81
2019-03-31T21:29:24.608Z,55.00
2019-03-31T21:30:20.398Z,54.78
2019-03-31T21:32:49.831Z,55.10
2019-03-31T21:35:19.255Z,55.11
2019-03-31T21:37:48.557Z,54.90
2019-03-31T21:40:17.925Z,55.02
2019-03-31T21:42:47.553Z,54.97
2019-03-31T21:45:17.214Z,55.12
2019-03-31T21:47:46.640Z,55.14
2019-03-31T21:50:16.126Z,55.06
2019-03-31T21:52:45.572Z,55.08
2019-03-31T21:55:14.963Z,54.94
2019-03-31T21:57:44.398Z,55.11
2019-03-31T22:00:14.681Z,54.68
2019-03-31T22:02:44.097Z,54.37
2019-03-31T22:05:13.598Z,54.55
2019-03-31T22:07:43.083Z,54.31
2019-03-31T22:10:12.728Z,54.45
2019-03-31T22:12:42.268Z,54.35
2019-03-31T22:15:16.045Z,54.44
2019-03-31T22:17:45.472Z,54.40
2019-03-31T22:20:16.011Z,54.34
2019-03-31T22:22:45.327Z,54.54
2019-03-31T22:25:14.711Z,54.31
2019-03-31T22:27:44.395Z,54.45
2019-03-31T22:30:13.832Z,54.25
2019-03-31T22:32:43.365Z,54.39
2019-03-31T22:35:12.798Z,54.68
2019-03-31T22:37:42.180Z,54.88
2019-03-31T22:40:11.609Z,54.84
2019-03-31T22:42:41.042Z,54.43
2019-03-31T22:45:10.583Z,54.58
2019-03-31T22:47:40.064Z,54.51
2019-03-31T22:50:09.576Z,55.01
2019-03-31T22:52:38.932Z,54.97
2019-03-31T22:55:08.366Z,55.06
2019-03-31T22:57:37.773Z,55.28
2019-03-31T23:00:09.466Z,55.47
2019-03-31T23:02:38.844Z,55.71
2019-03-31T23:05:08.371Z,55.87
2019-03-31T23:07:38.046Z,55.93
2019-03-31T23:10:07.896Z,55.76
2019-03-31T23:12:37.247Z,56.19
2019-03-31T23:15:06.782Z,56.12
2019-03-31T23:17:36.304Z,55.97
2019-03-31T23:20:05.732Z,56.34
2019-03-31T23:22:35.141Z,56.54
2019-03-31T23:25:04.841Z,56.44
2019-03-31T23:27:34.759Z,56.40
2019-03-31T23:30:09.799Z,56.69
2019-03-31T23:32:39.347Z,56.50
2019-03-31T23:35:08.903Z,56.88
2019-03-31T23:37:38.296Z,56.55
2019-03-31T23:40:07.786Z,56.87
2019-03-31T23:42:37.127Z,56.77
2019-03-31T23:45:06.555Z,57.43
2019-03-31T23:47:35.991Z,57.27
2019-03-31T23:50:05.659Z,56.83
2019-03-31T23:52:35.004Z,56.93
2019-03-31T23:55:04.340Z,57.63
2019-03-31T23:57:40.136Z,57.45
